sensor_id;sensor_type;location;lat;lon;timestamp;P1;durP1;ratioP1;P2;durP2;ratioP2
52320;SDS011;38261;54.090;13.382;2022-08-19T00:00:26;18.83;;;14.00;;
52320;SDS011;38261;54.090;13.382;2022-08-19T00:01:49;20.23;;;13.50;;
52320;SDS011;38261;54.090;13.382;2022-08-19T00:03:14;16.60;;;12.70;;
52320;SDS011;38261;54.090;13.382;2022-08-19T00:04:36;20.87;;;12.60;;
52320;SDS011;38261;54.090;13.382;2022-08-19T00:05:59;17.70;;;13.80;;
52320;SDS011;38261;54.090;13.382;2022-08-19T00:07:21;19.77;;;14.17;;
52320;SDS011;38261;54.090;13.382;2022-08-19T00:08:43;16.80;;;13.90;;
52320;SDS011;38261;54.090;13.382;2022-08-19T00:10:06;19.13;;;13.63;;
52320;SDS011;38261;54.090;13.382;2022-08-19T00:11:29;19.20;;;14.53;;
52320;SDS011;38261;54.090;13.382;2022-08-19T00:12:53;27.73;;;16.93;;
52320;SDS011;38261;54.090;13.382;2022-08-19T00:14:16;22.50;;;15.23;;
52320;SDS011;38261;54.090;13.382;2022-08-19T00:15:39;23.23;;;17.03;;
52320;SDS011;38261;54.090;13.382;2022-08-19T00:17:02;24.33;;;17.87;;
52320;SDS011;38261;54.090;13.382;2022-08-19T00:18:25;21.67;;;14.73;;
52320;SDS011;38261;54.090;13.382;2022-08-19T00:19:47;17.10;;;15.20;;
52320;SDS011;38261;54.090;13.382;2022-08-19T00:21:09;25.63;;;15.13;;
52320;SDS011;38261;54.090;13.382;2022-08-19T00:22:32;18.70;;;14.33;;
52320;SDS011;38261;54.090;13.382;2022-08-19T00:23:54;19.70;;;16.53;;
52320;SDS011;38261;54.090;13.382;2022-08-19T00:25:20;24.33;;;16.17;;
52320;SDS011;38261;54.090;13.382;2022-08-19T00:26:51;25.20;;;17.90;;
52320;SDS011;38261;54.090;13.382;2022-08-19T00:28:13;19.10;;;16.00;;
52320;SDS011;38261;54.090;13.382;2022-08-19T00:29:35;19.30;;;15.87;;
52320;SDS011;38261;54.090;13.382;2022-08-19T00:30:58;19.50;;;15.33;;
52320;SDS011;38261;54.090;13.382;2022-08-19T00:32:21;21.53;;;16.23;;
52320;SDS011;38261;54.090;13.382;2022-08-19T00:33:44;17.57;;;15.00;;
52320;SDS011;38261;54.090;13.382;2022-08-19T00:35:06;21.63;;;15.70;;
52320;SDS011;38261;54.090;13.382;2022-08-19T00:36:29;21.27;;;15.97;;
52320;SDS011;38261;54.090;13.382;2022-08-19T00:37:53;19.97;;;15.30;;
52320;SDS011;38261;54.090;13.382;2022-08-19T00:39:15;16.57;;;14.50;;
52320;SDS011;38261;54.090;13.382;2022-08-19T00:40:38;18.37;;;14.63;;
52320;SDS011;38261;54.090;13.382;2022-08-19T00:42:01;17.90;;;15.23;;
52320;SDS011;38261;54.090;13.382;2022-08-19T00:43:24;19.23;;;14.10;;
52320;SDS011;38261;54.090;13.382;2022-08-19T00:44:47;17.63;;;14.77;;
52320;SDS011;38261;54.090;13.382;2022-08-19T00:46:10;21.23;;;15.03;;
52320;SDS011;38261;54.090;13.382;2022-08-19T00:47:32;18.67;;;14.90;;
52320;SDS011;38261;54.090;13.382;2022-08-19T00:48:55;23.80;;;14.70;;
52320;SDS011;38261;54.090;13.382;2022-08-19T00:50:19;19.53;;;14.53;;
52320;SDS011;38261;54.090;13.382;2022-08-19T00:51:44;21.20;;;16.90;;
52320;SDS011;38261;54.090;13.382;2022-08-19T00:53:09;21.20;;;16.70;;
52320;SDS011;38261;54.090;13.382;2022-08-19T00:54:33;22.20;;;17.23;;
52320;SDS011;38261;54.090;13.382;2022-08-19T00:55:58;21.70;;;17.77;;
52320;SDS011;38261;54.090;13.382;2022-08-19T00:57:28;20.90;;;15.20;;
52320;SDS011;38261;54.090;13.382;2022-08-19T00:58:57;21.47;;;15.50;;
52320;SDS011;38261;54.090;13.382;2022-08-19T01:00:21;18.93;;;16.43;;
52320;SDS011;38261;54.090;13.382;2022-08-19T01:01:46;19.13;;;15.43;;
52320;SDS011;38261;54.090;13.382;2022-08-19T01:03:10;23.57;;;14.93;;
52320;SDS011;38261;54.090;13.382;2022-08-19T01:04:35;19.73;;;14.87;;
52320;SDS011;38261;54.090;13.382;2022-08-19T01:05:57;18.20;;;15.47;;
52320;SDS011;38261;54.090;13.382;2022-08-19T01:07:21;24.57;;;17.17;;
52320;SDS011;38261;54.090;13.382;2022-08-19T01:08:44;20.13;;;16.70;;
52320;SDS011;38261;54.090;13.382;2022-08-19T01:10:11;28.73;;;19.47;;
52320;SDS011;38261;54.090;13.382;2022-08-19T01:11:36;31.47;;;18.20;;
52320;SDS011;38261;54.090;13.382;2022-08-19T01:13:01;21.50;;;17.90;;
52320;SDS011;38261;54.090;13.382;2022-08-19T01:14:25;22.47;;;17.70;;
52320;SDS011;38261;54.090;13.382;2022-08-19T01:15:49;21.60;;;17.70;;
52320;SDS011;38261;54.090;13.382;2022-08-19T01:17:17;22.00;;;16.70;;
52320;SDS011;38261;54.090;13.382;2022-08-19T01:18:41;22.67;;;17.47;;
52320;SDS011;38261;54.090;13.382;2022-08-19T01:20:05;28.40;;;20.33;;
52320;SDS011;38261;54.090;13.382;2022-08-19T01:21:31;22.60;;;18.17;;
52320;SDS011;38261;54.090;13.382;2022-08-19T01:22:55;27.07;;;17.60;;
52320;SDS011;38261;54.090;13.382;2022-08-19T01:24:19;22.50;;;19.03;;
52320;SDS011;38261;54.090;13.382;2022-08-19T01:27:08;24.30;;;18.60;;
52320;SDS011;38261;54.090;13.382;2022-08-19T01:28:31;25.70;;;19.40;;
52320;SDS011;38261;54.090;13.382;2022-08-19T01:30:00;24.80;;;18.30;;
52320;SDS011;38261;54.090;13.382;2022-08-19T01:31:23;22.83;;;17.30;;
52320;SDS011;38261;54.090;13.382;2022-08-19T01:32:49;26.23;;;18.20;;
52320;SDS011;38261;54.090;13.382;2022-08-19T01:34:12;23.90;;;18.37;;
52320;SDS011;38261;54.090;13.382;2022-08-19T01:35:34;27.60;;;19.50;;
52320;SDS011;38261;54.090;13.382;2022-08-19T01:36:57;32.00;;;19.70;;
52320;SDS011;38261;54.090;13.382;2022-08-19T01:38:24;25.23;;;18.63;;
52320;SDS011;38261;54.090;13.382;2022-08-19T01:39:49;22.20;;;17.93;;
52320;SDS011;38261;54.090;13.382;2022-08-19T01:41:11;19.33;;;15.43;;
52320;SDS011;38261;54.090;13.382;2022-08-19T01:42:34;22.90;;;17.30;;
52320;SDS011;38261;54.090;13.382;2022-08-19T01:43:56;28.10;;;17.60;;
52320;SDS011;38261;54.090;13.382;2022-08-19T01:45:38;19.87;;;15.73;;
52320;SDS011;38261;54.090;13.382;2022-08-19T01:47:01;26.00;;;17.57;;
52320;SDS011;38261;54.090;13.382;2022-08-19T01:48:25;21.83;;;15.70;;
52320;SDS011;38261;54.090;13.382;2022-08-19T01:49:47;28.17;;;18.87;;
52320;SDS011;38261;54.090;13.382;2022-08-19T01:51:09;20.17;;;16.23;;
52320;SDS011;38261;54.090;13.382;2022-08-19T01:52:34;21.40;;;17.03;;
52320;SDS011;38261;54.090;13.382;2022-08-19T01:53:57;21.67;;;17.00;;
52320;SDS011;38261;54.090;13.382;2022-08-19T01:55:20;22.00;;;17.00;;
52320;SDS011;38261;54.090;13.382;2022-08-19T01:56:45;21.97;;;17.77;;
52320;SDS011;38261;54.090;13.382;2022-08-19T01:58:09;20.70;;;16.20;;
52320;SDS011;38261;54.090;13.382;2022-08-19T01:59:42;22.13;;;17.00;;
52320;SDS011;38261;54.090;13.382;2022-08-19T02:01:06;17.03;;;14.53;;
52320;SDS011;38261;54.090;13.382;2022-08-19T02:02:29;23.93;;;16.20;;
52320;SDS011;38261;54.090;13.382;2022-08-19T02:03:51;27.87;;;17.33;;
52320;SDS011;38261;54.090;13.382;2022-08-19T02:05:17;19.50;;;16.20;;
52320;SDS011;38261;54.090;13.382;2022-08-19T02:06:40;20.80;;;17.27;;
52320;SDS011;38261;54.090;13.382;2022-08-19T02:08:02;24.60;;;17.40;;
52320;SDS011;38261;54.090;13.382;2022-08-19T02:09:24;30.07;;;18.50;;
52320;SDS011;38261;54.090;13.382;2022-08-19T02:10:47;22.10;;;17.37;;
52320;SDS011;38261;54.090;13.382;2022-08-19T02:12:09;22.87;;;17.10;;
52320;SDS011;38261;54.090;13.382;2022-08-19T02:13:31;22.60;;;17.30;;
52320;SDS011;38261;54.090;13.382;2022-08-19T02:14:55;24.57;;;18.50;;
52320;SDS011;38261;54.090;13.382;2022-08-19T02:16:17;25.83;;;16.87;;
52320;SDS011;38261;54.090;13.382;2022-08-19T02:17:40;21.70;;;16.40;;
52320;SDS011;38261;54.090;13.382;2022-08-19T02:19:03;27.73;;;16.50;;
52320;SDS011;38261;54.090;13.382;2022-08-19T02:20:25;17.80;;;15.10;;
52320;SDS011;38261;54.090;13.382;2022-08-19T02:21:47;20.00;;;15.97;;
52320;SDS011;38261;54.090;13.382;2022-08-19T02:23:10;21.60;;;16.43;;
52320;SDS011;38261;54.090;13.382;2022-08-19T02:24:34;30.13;;;16.77;;
52320;SDS011;38261;54.090;13.382;2022-08-19T02:25:56;20.30;;;16.83;;
52320;SDS011;38261;54.090;13.382;2022-08-19T02:27:18;22.53;;;16.93;;
52320;SDS011;38261;54.090;13.382;2022-08-19T02:28:41;21.80;;;16.30;;
52320;SDS011;38261;54.090;13.382;2022-08-19T02:30:09;23.97;;;17.43;;
52320;SDS011;38261;54.090;13.382;2022-08-19T02:31:35;21.90;;;17.10;;
52320;SDS011;38261;54.090;13.382;2022-08-19T02:32:57;21.00;;;16.67;;
52320;SDS011;38261;54.090;13.382;2022-08-19T02:34:19;21.73;;;16.80;;
52320;SDS011;38261;54.090;13.382;2022-08-19T02:35:43;22.83;;;17.20;;
52320;SDS011;38261;54.090;13.382;2022-08-19T02:37:06;24.17;;;16.53;;
52320;SDS011;38261;54.090;13.382;2022-08-19T02:38:49;20.50;;;15.90;;
52320;SDS011;38261;54.090;13.382;2022-08-19T02:40:15;22.10;;;16.00;;
52320;SDS011;38261;54.090;13.382;2022-08-19T02:41:39;23.80;;;15.70;;
52320;SDS011;38261;54.090;13.382;2022-08-19T02:43:02;23.13;;;17.60;;
52320;SDS011;38261;54.090;13.382;2022-08-19T02:44:29;23.73;;;16.50;;
52320;SDS011;38261;54.090;13.382;2022-08-19T02:45:52;19.30;;;16.13;;
52320;SDS011;38261;54.090;13.382;2022-08-19T02:47:15;20.43;;;15.93;;
52320;SDS011;38261;54.090;13.382;2022-08-19T02:48:37;24.80;;;17.47;;
52320;SDS011;38261;54.090;13.382;2022-08-19T02:50:00;24.27;;;16.33;;
52320;SDS011;38261;54.090;13.382;2022-08-19T02:51:27;26.40;;;16.83;;
52320;SDS011;38261;54.090;13.382;2022-08-19T02:52:54;19.67;;;15.60;;
52320;SDS011;38261;54.090;13.382;2022-08-19T02:54:16;20.90;;;16.97;;
52320;SDS011;38261;54.090;13.382;2022-08-19T02:55:47;21.77;;;17.10;;
52320;SDS011;38261;54.090;13.382;2022-08-19T02:57:09;19.00;;;15.10;;
52320;SDS011;38261;54.090;13.382;2022-08-19T02:58:32;20.80;;;15.40;;
52320;SDS011;38261;54.090;13.382;2022-08-19T02:59:54;21.40;;;15.53;;
52320;SDS011;38261;54.090;13.382;2022-08-19T03:01:34;22.20;;;16.63;;
52320;SDS011;38261;54.090;13.382;2022-08-19T03:02:57;19.50;;;14.80;;
52320;SDS011;38261;54.090;13.382;2022-08-19T03:04:19;23.27;;;15.53;;
52320;SDS011;38261;54.090;13.382;2022-08-19T03:05:41;18.10;;;14.30;;
52320;SDS011;38261;54.090;13.382;2022-08-19T03:07:17;25.20;;;15.83;;
52320;SDS011;38261;54.090;13.382;2022-08-19T03:08:40;23.27;;;15.37;;
52320;SDS011;38261;54.090;13.382;2022-08-19T03:10:04;24.33;;;17.27;;
52320;SDS011;38261;54.090;13.382;2022-08-19T03:11:28;21.60;;;17.30;;
52320;SDS011;38261;54.090;13.382;2022-08-19T03:12:52;21.97;;;16.03;;
52320;SDS011;38261;54.090;13.382;2022-08-19T03:14:14;22.57;;;16.63;;
52320;SDS011;38261;54.090;13.382;2022-08-19T03:15:41;23.40;;;17.93;;
52320;SDS011;38261;54.090;13.382;2022-08-19T03:17:04;22.57;;;17.30;;
52320;SDS011;38261;54.090;13.382;2022-08-19T03:18:26;25.27;;;16.73;;
52320;SDS011;38261;54.090;13.382;2022-08-19T03:19:49;19.63;;;15.47;;
52320;SDS011;38261;54.090;13.382;2022-08-19T03:21:21;26.07;;;17.73;;
52320;SDS011;38261;54.090;13.382;2022-08-19T03:22:45;24.33;;;16.07;;
52320;SDS011;38261;54.090;13.382;2022-08-19T03:24:08;23.10;;;16.57;;
52320;SDS011;38261;54.090;13.382;2022-08-19T03:25:30;25.83;;;16.33;;
52320;SDS011;38261;54.090;13.382;2022-08-19T03:26:53;20.97;;;16.53;;
52320;SDS011;38261;54.090;13.382;2022-08-19T03:28:20;19.30;;;16.20;;
52320;SDS011;38261;54.090;13.382;2022-08-19T03:29:42;23.00;;;15.80;;
52320;SDS011;38261;54.090;13.382;2022-08-19T03:31:06;23.70;;;16.63;;
52320;SDS011;38261;54.090;13.382;2022-08-19T03:32:52;24.50;;;16.80;;
52320;SDS011;38261;54.090;13.382;2022-08-19T03:34:20;16.87;;;13.87;;
52320;SDS011;38261;54.090;13.382;2022-08-19T03:35:58;19.00;;;14.77;;
52320;SDS011;38261;54.090;13.382;2022-08-19T03:37:22;22.60;;;15.00;;
52320;SDS011;38261;54.090;13.382;2022-08-19T03:38:45;23.77;;;16.47;;
52320;SDS011;38261;54.090;13.382;2022-08-19T03:40:20;17.70;;;14.60;;
52320;SDS011;38261;54.090;13.382;2022-08-19T03:41:42;19.60;;;14.27;;
52320;SDS011;38261;54.090;13.382;2022-08-19T03:43:09;21.73;;;15.33;;
52320;SDS011;38261;54.090;13.382;2022-08-19T03:44:31;20.20;;;15.17;;
52320;SDS011;38261;54.090;13.382;2022-08-19T03:46:04;20.67;;;15.50;;
52320;SDS011;38261;54.090;13.382;2022-08-19T03:47:28;25.77;;;16.47;;
52320;SDS011;38261;54.090;13.382;2022-08-19T03:48:52;22.83;;;16.23;;
52320;SDS011;38261;54.090;13.382;2022-08-19T03:50:17;21.13;;;15.40;;
52320;SDS011;38261;54.090;13.382;2022-08-19T03:51:41;22.20;;;15.90;;
52320;SDS011;38261;54.090;13.382;2022-08-19T03:53:04;24.33;;;15.73;;
52320;SDS011;38261;54.090;13.382;2022-08-19T03:54:27;20.70;;;15.83;;
52320;SDS011;38261;54.090;13.382;2022-08-19T03:55:50;19.60;;;14.80;;
52320;SDS011;38261;54.090;13.382;2022-08-19T03:57:12;22.87;;;16.87;;
52320;SDS011;38261;54.090;13.382;2022-08-19T03:58:34;21.30;;;15.27;;
52320;SDS011;38261;54.090;13.382;2022-08-19T03:59:59;21.97;;;15.57;;
52320;SDS011;38261;54.090;13.382;2022-08-19T04:01:34;21.93;;;14.70;;
52320;SDS011;38261;54.090;13.382;2022-08-19T04:02:56;23.47;;;15.20;;
52320;SDS011;38261;54.090;13.382;2022-08-19T04:04:21;22.70;;;15.60;;
52320;SDS011;38261;54.090;13.382;2022-08-19T04:05:44;20.70;;;15.40;;
52320;SDS011;38261;54.090;13.382;2022-08-19T04:07:08;20.40;;;15.70;;
52320;SDS011;38261;54.090;13.382;2022-08-19T04:08:31;18.27;;;15.40;;
52320;SDS011;38261;54.090;13.382;2022-08-19T04:09:53;18.80;;;14.90;;
52320;SDS011;38261;54.090;13.382;2022-08-19T04:11:16;19.93;;;15.87;;
52320;SDS011;38261;54.090;13.382;2022-08-19T04:13:03;23.03;;;14.97;;
52320;SDS011;38261;54.090;13.382;2022-08-19T04:14:27;23.33;;;16.80;;
52320;SDS011;38261;54.090;13.382;2022-08-19T04:15:51;20.70;;;16.17;;
52320;SDS011;38261;54.090;13.382;2022-08-19T04:17:14;19.87;;;15.70;;
52320;SDS011;38261;54.090;13.382;2022-08-19T04:18:37;20.67;;;14.20;;
52320;SDS011;38261;54.090;13.382;2022-08-19T04:20:00;14.37;;;12.27;;
52320;SDS011;38261;54.090;13.382;2022-08-19T04:21:27;18.57;;;14.00;;
52320;SDS011;38261;54.090;13.382;2022-08-19T04:22:50;16.60;;;12.80;;
52320;SDS011;38261;54.090;13.382;2022-08-19T04:24:13;18.23;;;13.30;;
52320;SDS011;38261;54.090;13.382;2022-08-19T04:25:36;18.40;;;14.90;;
52320;SDS011;38261;54.090;13.382;2022-08-19T04:27:00;20.20;;;13.50;;
52320;SDS011;38261;54.090;13.382;2022-08-19T04:28:24;17.47;;;12.60;;
52320;SDS011;38261;54.090;13.382;2022-08-19T04:29:47;15.07;;;12.13;;
52320;SDS011;38261;54.090;13.382;2022-08-19T04:31:13;25.70;;;13.67;;
52320;SDS011;38261;54.090;13.382;2022-08-19T04:32:36;16.83;;;13.40;;
52320;SDS011;38261;54.090;13.382;2022-08-19T04:33:59;18.87;;;13.77;;
52320;SDS011;38261;54.090;13.382;2022-08-19T04:35:22;18.50;;;13.13;;
52320;SDS011;38261;54.090;13.382;2022-08-19T04:36:45;15.03;;;11.40;;
52320;SDS011;38261;54.090;13.382;2022-08-19T04:38:08;19.67;;;14.13;;
52320;SDS011;38261;54.090;13.382;2022-08-19T04:39:31;18.33;;;13.50;;
52320;SDS011;38261;54.090;13.382;2022-08-19T04:41:11;18.30;;;13.40;;
52320;SDS011;38261;54.090;13.382;2022-08-19T04:42:52;17.60;;;13.43;;
52320;SDS011;38261;54.090;13.382;2022-08-19T04:44:15;12.33;;;11.03;;
52320;SDS011;38261;54.090;13.382;2022-08-19T04:45:39;13.70;;;11.57;;
52320;SDS011;38261;54.090;13.382;2022-08-19T04:47:05;15.30;;;11.73;;
52320;SDS011;38261;54.090;13.382;2022-08-19T04:48:32;13.17;;;10.27;;
52320;SDS011;38261;54.090;13.382;2022-08-19T04:49:55;12.20;;;10.33;;
52320;SDS011;38261;54.090;13.382;2022-08-19T04:51:18;15.10;;;12.33;;
52320;SDS011;38261;54.090;13.382;2022-08-19T04:52:42;15.93;;;12.90;;
52320;SDS011;38261;54.090;13.382;2022-08-19T04:54:04;16.23;;;11.87;;
52320;SDS011;38261;54.090;13.382;2022-08-19T04:55:26;16.43;;;12.90;;
52320;SDS011;38261;54.090;13.382;2022-08-19T04:56:49;15.27;;;12.00;;
52320;SDS011;38261;54.090;13.382;2022-08-19T04:58:11;13.90;;;11.23;;
52320;SDS011;38261;54.090;13.382;2022-08-19T04:59:33;18.70;;;13.00;;
52320;SDS011;38261;54.090;13.382;2022-08-19T05:00:56;18.40;;;13.30;;
52320;SDS011;38261;54.090;13.382;2022-08-19T05:02:18;21.60;;;14.93;;
52320;SDS011;38261;54.090;13.382;2022-08-19T05:03:40;16.80;;;14.10;;
52320;SDS011;38261;54.090;13.382;2022-08-19T05:05:02;21.10;;;15.90;;
52320;SDS011;38261;54.090;13.382;2022-08-19T05:06:25;16.13;;;13.53;;
52320;SDS011;38261;54.090;13.382;2022-08-19T05:07:47;19.50;;;14.70;;
52320;SDS011;38261;54.090;13.382;2022-08-19T05:09:09;17.93;;;13.00;;
52320;SDS011;38261;54.090;13.382;2022-08-19T05:10:31;15.37;;;12.20;;
52320;SDS011;38261;54.090;13.382;2022-08-19T05:11:57;14.83;;;11.50;;
52320;SDS011;38261;54.090;13.382;2022-08-19T05:13:19;16.80;;;12.90;;
52320;SDS011;38261;54.090;13.382;2022-08-19T05:14:41;13.67;;;11.70;;
52320;SDS011;38261;54.090;13.382;2022-08-19T05:16:03;14.43;;;11.27;;
52320;SDS011;38261;54.090;13.382;2022-08-19T05:17:26;16.73;;;10.90;;
52320;SDS011;38261;54.090;13.382;2022-08-19T05:18:54;15.13;;;12.03;;
52320;SDS011;38261;54.090;13.382;2022-08-19T05:20:37;19.07;;;13.07;;
52320;SDS011;38261;54.090;13.382;2022-08-19T05:22:19;15.33;;;11.60;;
52320;SDS011;38261;54.090;13.382;2022-08-19T05:23:53;14.33;;;11.43;;
52320;SDS011;38261;54.090;13.382;2022-08-19T05:25:17;15.27;;;11.70;;
52320;SDS011;38261;54.090;13.382;2022-08-19T05:26:42;12.17;;;10.80;;
52320;SDS011;38261;54.090;13.382;2022-08-19T05:28:07;17.47;;;13.30;;
52320;SDS011;38261;54.090;13.382;2022-08-19T05:29:30;13.80;;;10.90;;
52320;SDS011;38261;54.090;13.382;2022-08-19T05:30:57;14.20;;;12.10;;
52320;SDS011;38261;54.090;13.382;2022-08-19T05:32:19;18.33;;;12.73;;
52320;SDS011;38261;54.090;13.382;2022-08-19T05:33:43;23.00;;;13.13;;
52320;SDS011;38261;54.090;13.382;2022-08-19T05:35:05;17.73;;;13.00;;
52320;SDS011;38261;54.090;13.382;2022-08-19T05:36:29;19.03;;;13.43;;
52320;SDS011;38261;54.090;13.382;2022-08-19T05:37:56;22.10;;;13.90;;
52320;SDS011;38261;54.090;13.382;2022-08-19T05:39:20;22.00;;;14.20;;
52320;SDS011;38261;54.090;13.382;2022-08-19T05:40:42;22.37;;;13.73;;
52320;SDS011;38261;54.090;13.382;2022-08-19T05:42:09;18.40;;;12.40;;
52320;SDS011;38261;54.090;13.382;2022-08-19T05:43:32;15.63;;;12.33;;
52320;SDS011;38261;54.090;13.382;2022-08-19T05:44:54;14.73;;;11.40;;
52320;SDS011;38261;54.090;13.382;2022-08-19T05:46:18;19.40;;;12.13;;
52320;SDS011;38261;54.090;13.382;2022-08-19T05:47:48;18.03;;;14.43;;
52320;SDS011;38261;54.090;13.382;2022-08-19T05:49:11;17.17;;;13.57;;
52320;SDS011;38261;54.090;13.382;2022-08-19T05:50:34;18.37;;;13.60;;
52320;SDS011;38261;54.090;13.382;2022-08-19T05:51:57;18.07;;;13.80;;
52320;SDS011;38261;54.090;13.382;2022-08-19T05:53:20;19.17;;;13.90;;
52320;SDS011;38261;54.090;13.382;2022-08-19T05:54:43;18.97;;;15.40;;
52320;SDS011;38261;54.090;13.382;2022-08-19T05:56:13;19.60;;;13.37;;
52320;SDS011;38261;54.090;13.382;2022-08-19T05:57:37;23.10;;;15.30;;
52320;SDS011;38261;54.090;13.382;2022-08-19T05:58:59;22.47;;;14.90;;
52320;SDS011;38261;54.090;13.382;2022-08-19T06:00:22;22.63;;;15.10;;
52320;SDS011;38261;54.090;13.382;2022-08-19T06:01:45;21.67;;;16.43;;
52320;SDS011;38261;54.090;13.382;2022-08-19T06:03:07;17.00;;;13.60;;
52320;SDS011;38261;54.090;13.382;2022-08-19T06:04:34;21.73;;;15.37;;
52320;SDS011;38261;54.090;13.382;2022-08-19T06:05:56;18.67;;;13.60;;
52320;SDS011;38261;54.090;13.382;2022-08-19T06:07:20;15.97;;;13.37;;
52320;SDS011;38261;54.090;13.382;2022-08-19T06:08:43;18.80;;;14.40;;
52320;SDS011;38261;54.090;13.382;2022-08-19T06:10:12;25.20;;;15.53;;
52320;SDS011;38261;54.090;13.382;2022-08-19T06:11:41;18.00;;;15.40;;
52320;SDS011;38261;54.090;13.382;2022-08-19T06:13:05;22.97;;;16.47;;
52320;SDS011;38261;54.090;13.382;2022-08-19T06:14:31;27.00;;;17.70;;
52320;SDS011;38261;54.090;13.382;2022-08-19T06:16:00;22.73;;;17.17;;
52320;SDS011;38261;54.090;13.382;2022-08-19T06:17:23;23.40;;;17.30;;
52320;SDS011;38261;54.090;13.382;2022-08-19T06:18:54;21.13;;;16.07;;
52320;SDS011;38261;54.090;13.382;2022-08-19T06:20:18;23.20;;;16.80;;
52320;SDS011;38261;54.090;13.382;2022-08-19T06:22:02;24.67;;;16.93;;
52320;SDS011;38261;54.090;13.382;2022-08-19T06:23:24;23.93;;;18.20;;
52320;SDS011;38261;54.090;13.382;2022-08-19T06:24:47;23.10;;;16.90;;
52320;SDS011;38261;54.090;13.382;2022-08-19T06:26:11;23.80;;;17.63;;
52320;SDS011;38261;54.090;13.382;2022-08-19T06:27:34;25.30;;;16.07;;
52320;SDS011;38261;54.090;13.382;2022-08-19T06:29:00;22.93;;;17.47;;
52320;SDS011;38261;54.090;13.382;2022-08-19T06:30:22;21.30;;;16.57;;
52320;SDS011;38261;54.090;13.382;2022-08-19T06:31:47;23.63;;;18.17;;
52320;SDS011;38261;54.090;13.382;2022-08-19T06:33:13;24.83;;;19.80;;
52320;SDS011;38261;54.090;13.382;2022-08-19T06:34:35;25.03;;;20.00;;
52320;SDS011;38261;54.090;13.382;2022-08-19T06:35:58;26.90;;;18.87;;
52320;SDS011;38261;54.090;13.382;2022-08-19T06:37:20;21.93;;;17.30;;
52320;SDS011;38261;54.090;13.382;2022-08-19T06:38:43;22.40;;;16.10;;
52320;SDS011;38261;54.090;13.382;2022-08-19T06:40:07;26.93;;;19.53;;
52320;SDS011;38261;54.090;13.382;2022-08-19T06:41:30;22.37;;;17.87;;
52320;SDS011;38261;54.090;13.382;2022-08-19T06:42:59;22.80;;;15.70;;
52320;SDS011;38261;54.090;13.382;2022-08-19T06:44:29;24.03;;;18.93;;
52320;SDS011;38261;54.090;13.382;2022-08-19T06:46:03;24.20;;;18.57;;
52320;SDS011;38261;54.090;13.382;2022-08-19T06:47:35;33.13;;;21.40;;
52320;SDS011;38261;54.090;13.382;2022-08-19T06:48:57;30.30;;;20.47;;
52320;SDS011;38261;54.090;13.382;2022-08-19T06:50:20;23.10;;;17.27;;
52320;SDS011;38261;54.090;13.382;2022-08-19T06:51:46;25.40;;;17.80;;
52320;SDS011;38261;54.090;13.382;2022-08-19T06:53:12;30.80;;;20.87;;
52320;SDS011;38261;54.090;13.382;2022-08-19T06:54:35;32.13;;;20.73;;
52320;SDS011;38261;54.090;13.382;2022-08-19T06:56:16;33.53;;;20.27;;
52320;SDS011;38261;54.090;13.382;2022-08-19T06:57:42;28.07;;;19.77;;
52320;SDS011;38261;54.090;13.382;2022-08-19T06:59:09;24.43;;;19.37;;
52320;SDS011;38261;54.090;13.382;2022-08-19T07:00:32;23.63;;;17.63;;
52320;SDS011;38261;54.090;13.382;2022-08-19T07:01:55;22.87;;;18.67;;
52320;SDS011;38261;54.090;13.382;2022-08-19T07:03:18;23.80;;;18.63;;
52320;SDS011;38261;54.090;13.382;2022-08-19T07:04:40;22.10;;;17.87;;
52320;SDS011;38261;54.090;13.382;2022-08-19T07:06:07;26.30;;;18.77;;
52320;SDS011;38261;54.090;13.382;2022-08-19T07:07:51;20.53;;;16.37;;
52320;SDS011;38261;54.090;13.382;2022-08-19T07:09:18;23.97;;;17.90;;
52320;SDS011;38261;54.090;13.382;2022-08-19T07:10:45;26.77;;;18.43;;
52320;SDS011;38261;54.090;13.382;2022-08-19T07:12:08;21.87;;;17.13;;
52320;SDS011;38261;54.090;13.382;2022-08-19T07:13:33;24.63;;;18.33;;
52320;SDS011;38261;54.090;13.382;2022-08-19T07:15:00;22.50;;;18.30;;
52320;SDS011;38261;54.090;13.382;2022-08-19T07:16:22;24.10;;;17.87;;
52320;SDS011;38261;54.090;13.382;2022-08-19T07:17:49;21.67;;;17.30;;
52320;SDS011;38261;54.090;13.382;2022-08-19T07:19:13;24.23;;;16.70;;
52320;SDS011;38261;54.090;13.382;2022-08-19T07:20:39;30.27;;;18.87;;
52320;SDS011;38261;54.090;13.382;2022-08-19T07:22:03;21.77;;;16.50;;
52320;SDS011;38261;54.090;13.382;2022-08-19T07:23:27;22.40;;;18.37;;
52320;SDS011;38261;54.090;13.382;2022-08-19T07:24:49;24.77;;;18.23;;
52320;SDS011;38261;54.090;13.382;2022-08-19T07:26:14;23.37;;;17.70;;
52320;SDS011;38261;54.090;13.382;2022-08-19T07:27:48;22.90;;;18.33;;
52320;SDS011;38261;54.090;13.382;2022-08-19T07:29:15;24.80;;;20.10;;
52320;SDS011;38261;54.090;13.382;2022-08-19T07:30:38;23.37;;;18.93;;
52320;SDS011;38261;54.090;13.382;2022-08-19T07:32:04;20.90;;;16.93;;
52320;SDS011;38261;54.090;13.382;2022-08-19T07:33:32;23.37;;;16.87;;
52320;SDS011;38261;54.090;13.382;2022-08-19T07:34:57;24.27;;;17.60;;
52320;SDS011;38261;54.090;13.382;2022-08-19T07:36:23;22.00;;;17.80;;
52320;SDS011;38261;54.090;13.382;2022-08-19T07:37:52;27.63;;;19.13;;
52320;SDS011;38261;54.090;13.382;2022-08-19T07:39:17;22.17;;;16.83;;
52320;SDS011;38261;54.090;13.382;2022-08-19T07:40:44;21.00;;;16.00;;
52320;SDS011;38261;54.090;13.382;2022-08-19T07:42:08;27.37;;;18.77;;
52320;SDS011;38261;54.090;13.382;2022-08-19T07:43:33;22.67;;;17.37;;
52320;SDS011;38261;54.090;13.382;2022-08-19T07:44:56;24.33;;;18.07;;
52320;SDS011;38261;54.090;13.382;2022-08-19T07:46:20;24.00;;;18.57;;
52320;SDS011;38261;54.090;13.382;2022-08-19T07:47:42;27.80;;;19.93;;
52320;SDS011;38261;54.090;13.382;2022-08-19T07:49:11;26.83;;;20.27;;
52320;SDS011;38261;54.090;13.382;2022-08-19T07:50:38;24.57;;;18.43;;
52320;SDS011;38261;54.090;13.382;2022-08-19T07:52:03;23.90;;;19.63;;
52320;SDS011;38261;54.090;13.382;2022-08-19T07:53:28;27.43;;;20.47;;
52320;SDS011;38261;54.090;13.382;2022-08-19T07:54:51;24.13;;;19.87;;
52320;SDS011;38261;54.090;13.382;2022-08-19T07:56:14;24.43;;;18.33;;
52320;SDS011;38261;54.090;13.382;2022-08-19T07:57:36;22.10;;;19.13;;
52320;SDS011;38261;54.090;13.382;2022-08-19T07:59:00;28.70;;;21.70;;
52320;SDS011;38261;54.090;13.382;2022-08-19T08:00:22;27.70;;;20.60;;
52320;SDS011;38261;54.090;13.382;2022-08-19T08:01:45;32.43;;;20.90;;
52320;SDS011;38261;54.090;13.382;2022-08-19T08:03:07;29.30;;;20.03;;
52320;SDS011;38261;54.090;13.382;2022-08-19T08:04:30;31.40;;;21.67;;
52320;SDS011;38261;54.090;13.382;2022-08-19T08:06:14;29.80;;;22.40;;
52320;SDS011;38261;54.090;13.382;2022-08-19T08:07:55;27.07;;;21.23;;
52320;SDS011;38261;54.090;13.382;2022-08-19T08:09:37;31.10;;;20.93;;
52320;SDS011;38261;54.090;13.382;2022-08-19T08:11:03;28.10;;;20.20;;